Etusivu
METAR-TAF:

METAR-TAF

Lentoasemat :

Sfax, Tunisia

Leveyspiiri: 34-43N, Pituuspiiri: 010-41E, korkeus merenpinnasta: 21 m

Tämänhetkinen sää

Tämä raportti tehtiin 35 minuuttia sitten, kello 11.00 UTC
Tuuli 7 kn etelästä, vaihdellen kaakon ja lounaan välillä
Lämpötila 25°C
Kosteus 39%
Ilmanpaine 1013 hPa

METAR: DTTX 011100Z 17007KT 140V220 25/10 Q1013

Aika: 12:35 (11:35 UTC)

Sääennuste

Tämä raportti tehtiin 35 minuuttia sitten, kello 11.00 UTC
Ennuste voimassa 01. päivästä klo 12 UTC - 02. päivään klo 12 UTC
Tuuli 5 kn lounaasta
Näkyvyys 10 km tai enemmän
Hajanaisia pilviä 2000 ft:n korkeudessa
Tulossa
01. päivästä klo 14 UTC - 01. päivään klo 16 UTC
Tuuli 13 kn koillisesta

TAF: DTTX 011100Z 0112/0212 23005KT 9999 SCT020 BECMG 0114/0116 05013KT

Säähavainnot ja -ennusteet yli 4000 lentoasemalta (METAR- ja TAF-raportit).

Käytössä olevat sääasemat on merkitty karttaan keltaisilla ja punaisilla pisteillä.

Aseta hiiri pisteen päälle nähdäksesi sääaseman nimen.

Klikkaa sitten nähdäksesi säähavainnot ja -ennusteet.

Kartan vaihtaminen: klikkaa mustalla rastilla varustettuja vihreitä pisteitä, niin voit zoomata sisään; viivalla varustettua vihreää pistettä, niin voit zoomata ulos tai vihreitä nuolia, niin pääset viereisille kartoille.


METAR-TAF: